Time;durP1;ratioP1;P1;durP2;ratioP2;P2;SDS_P1;SDS_P2;PMS_P1;PMS_P2;Temp;Humidity;BMP_temperature;BMP_pressure;BME280_temperature;BME280_humidity;BME280_pressure;Samples;Min_cycle;Max_cycle;Signal;HPM_P1;HPM_P2
2024/02/19 00:00:50;;;;;;;0.30;0.20;;;;;;;11.00;100.00;101104.81;5046390;28;20453;-49
2024/02/19 00:03:17;;;;;;;0.30;0.20;;;;;;;11.13;99.96;101103.69;5044038;28;20819;-49
2024/02/19 00:05:47;;;;;;;0.30;0.20;;;;;;;11.24;100.00;101104.38;5045198;28;20450;-49
2024/02/19 00:08:14;;;;;;;0.70;0.70;;;;;;;11.05;100.00;101100.28;5040544;28;20541;-49
2024/02/19 00:10:40;;;;;;;0.30;0.20;;;;;;;11.17;100.00;101096.53;5038291;28;20551;-50
2024/02/19 00:13:07;;;;;;;0.30;0.20;;;;;;;11.19;99.88;101111.56;5043193;28;20553;-48
2024/02/19 00:15:34;;;;;;;0.30;0.20;;;;;;;11.32;99.76;101109.56;5045265;28;20485;-49
2024/02/19 00:18:00;;;;;;;0.30;0.20;;;;;;;11.35;99.10;101106.81;5040046;28;20490;-50
2024/02/19 00:20:27;;;;;;;0.30;0.20;;;;;;;11.48;99.16;101111.00;5038488;28;20454;-49
2024/02/19 00:22:53;;;;;;;0.30;0.20;;;;;;;11.50;99.35;101116.31;5042756;28;20478;-50
2024/02/19 00:25:20;;;;;;;0.30;0.20;;;;;;;11.40;98.73;101122.72;5044899;28;20454;-49
2024/02/19 00:27:46;;;;;;;0.30;0.20;;;;;;;11.28;99.79;101131.81;5041579;28;20496;-49
2024/02/19 00:30:13;;;;;;;0.30;0.20;;;;;;;11.35;99.34;101135.22;5048347;28;20452;-49
2024/02/19 00:32:39;;;;;;;0.30;0.20;;;;;;;11.32;99.80;101136.16;5041714;28;20475;-49
2024/02/19 00:35:06;;;;;;;0.30;0.20;;;;;;;11.45;100.00;101139.50;5049595;28;20504;-50
2024/02/19 00:37:32;;;;;;;0.30;0.20;;;;;;;11.47;99.50;101135.00;5041553;28;20491;-49
2024/02/19 00:39:59;;;;;;;0.30;0.20;;;;;;;11.33;99.95;101137.03;5044769;28;20494;-49
2024/02/19 00:42:26;;;;;;;0.30;0.20;;;;;;;11.41;99.92;101136.00;5041655;28;20569;-48
2024/02/19 00:44:52;;;;;;;0.30;0.20;;;;;;;11.36;99.99;101131.66;5037906;28;20479;-50
2024/02/19 00:47:19;;;;;;;0.30;0.20;;;;;;;11.42;99.56;101127.13;5041208;28;20479;-49
2024/02/19 00:49:45;;;;;;;0.30;0.20;;;;;;;11.35;99.93;101133.44;5035167;28;20501;-50
2024/02/19 00:52:12;;;;;;;0.30;0.20;;;;;;;11.44;99.79;101133.28;5040881;28;20507;-48
2024/02/19 00:54:38;;;;;;;0.30;0.20;;;;;;;11.61;99.79;101122.31;5044839;28;20809;-49
2024/02/19 00:57:05;;;;;;;0.30;0.20;;;;;;;11.48;99.45;101128.78;5031312;28;20530;-51
2024/02/19 00:59:31;;;;;;;0.30;0.20;;;;;;;11.34;99.59;101118.38;5044825;28;20456;-48
2024/02/19 01:01:58;;;;;;;0.30;0.20;;;;;;;11.40;99.33;101117.41;5045991;28;20907;-49
2024/02/19 01:04:25;;;;;;;0.30;0.20;;;;;;;11.62;98.82;101115.19;5047065;28;20455;-49
2024/02/19 01:06:51;;;;;;;0.30;0.20;;;;;;;11.42;99.47;101120.91;5044548;28;20891;-49
2024/02/19 01:09:18;;;;;;;0.30;0.20;;;;;;;11.42;99.58;101119.13;5048554;28;20455;-48
2024/02/19 01:11:44;;;;;;;0.30;0.20;;;;;;;11.32;99.77;101120.19;5045469;28;20477;-49
2024/02/19 01:14:10;;;;;;;0.30;0.20;;;;;;;11.35;100.00;101120.13;5041565;28;20538;-51
2024/02/19 01:16:37;;;;;;;0.30;0.20;;;;;;;11.44;99.98;101125.28;5044463;28;20505;-49
2024/02/19 01:19:05;;;;;;;0.30;0.20;;;;;;;11.53;99.36;101137.56;5048335;28;20469;-48
2024/02/19 01:21:32;;;;;;;0.30;0.20;;;;;;;11.34;100.00;101128.16;5034997;28;20482;-49
2024/02/19 01:24:00;;;;;;;0.30;0.20;;;;;;;11.38;99.43;101136.06;5048328;28;20542;-48
2024/02/19 01:26:26;;;;;;;0.30;0.20;;;;;;;11.25;100.00;101130.09;5045950;28;20505;-49
2024/02/19 01:28:53;;;;;;;0.30;0.20;;;;;;;11.38;99.99;101125.44;5054383;28;20438;-49
2024/02/19 01:31:21;;;;;;;0.30;0.20;;;;;;;11.40;99.98;101120.94;5042576;28;20550;-49
2024/02/19 01:33:48;;;;;;;0.30;0.20;;;;;;;11.57;99.30;101131.28;5052022;28;20450;-49
2024/02/19 01:36:14;;;;;;;0.30;0.20;;;;;;;11.38;99.70;101133.41;5054535;28;20779;-50
2024/02/19 01:38:44;;;;;;;0.30;0.20;;;;;;;11.44;100.00;101140.41;5041107;28;20549;-50
2024/02/19 01:41:10;;;;;;;0.30;0.20;;;;;;;11.47;100.00;101143.88;5040782;28;20455;-50
2024/02/19 01:43:36;;;;;;;0.30;0.20;;;;;;;11.40;100.00;101150.22;5041132;28;20537;-49
2024/02/19 01:46:03;;;;;;;0.30;0.20;;;;;;;11.47;99.79;101150.97;5040996;28;20447;-50
2024/02/19 01:48:30;;;;;;;2.13;2.03;;;;;;;11.51;99.37;101156.25;5047563;28;20544;-50
2024/02/19 01:50:57;;;;;;;0.30;0.20;;;;;;;11.53;98.88;101150.88;5047632;28;20497;-51
2024/02/19 01:53:24;;;;;;;0.30;0.20;;;;;;;11.47;99.20;101153.66;5041691;28;20486;-49
2024/02/19 01:55:51;;;;;;;0.30;0.20;;;;;;;11.46;98.95;101152.75;5040432;28;21017;-50
2024/02/19 01:58:18;;;;;;;0.30;0.20;;;;;;;11.65;98.70;101148.00;5046569;28;20525;-50
2024/02/19 02:00:45;;;;;;;0.30;0.20;;;;;;;11.45;98.89;101152.78;5047714;28;20455;-49
2024/02/19 02:03:17;;;;;;;0.30;0.20;;;;;;;11.71;97.50;101152.31;5040972;28;20544;-50
2024/02/19 02:05:46;;;;;;;0.30;0.20;;;;;;;11.62;96.72;101149.81;5047426;28;20493;-49
2024/02/19 02:08:12;;;;;;;0.30;0.20;;;;;;;11.63;95.63;101151.56;5042941;28;20896;-49
2024/02/19 02:10:39;;;;;;;0.30;0.20;;;;;;;11.68;94.80;101142.59;5040225;28;20878;-50
2024/02/19 02:13:05;;;;;;;0.30;0.20;;;;;;;11.70;93.80;101150.56;5043924;28;20526;-50
2024/02/19 02:15:32;;;;;;;0.30;0.20;;;;;;;11.50;94.85;101151.78;5047147;28;20450;-50
2024/02/19 02:17:58;;;;;;;0.30;0.20;;;;;;;11.48;94.83;101148.28;5043219;28;20490;-49
2024/02/19 02:20:26;;;;;;;0.30;0.20;;;;;;;11.47;94.14;101149.19;5040431;28;20541;-50
2024/02/19 02:22:54;;;;;;;0.30;0.20;;;;;;;11.39;94.27;101161.78;5043526;28;20904;-49
2024/02/19 02:25:22;;;;;;;0.30;0.20;;;;;;;11.40;94.02;101160.88;5047265;28;20513;-50
2024/02/19 02:27:48;;;;;;;0.30;0.20;;;;;;;11.32;93.91;101162.78;5044160;28;20859;-49
2024/02/19 02:30:15;;;;;;;0.30;0.20;;;;;;;11.28;94.17;101151.31;5050025;28;20491;-50
2024/02/19 02:32:41;;;;;;;0.30;0.20;;;;;;;11.35;93.81;101156.53;5043912;28;20836;-49
2024/02/19 02:35:08;;;;;;;0.30;0.20;;;;;;;11.32;94.41;101165.44;5051461;28;20455;-51
2024/02/19 02:37:35;;;;;;;0.30;0.20;;;;;;;11.53;94.07;101153.56;5042832;28;20497;-49
2024/02/19 02:40:01;;;;;;;0.30;0.20;;;;;;;11.43;93.80;101167.94;5047033;28;20506;-49
2024/02/19 02:42:27;;;;;;;0.30;0.20;;;;;;;11.54;93.79;101168.63;5043710;28;20850;-50
2024/02/19 02:44:54;;;;;;;0.30;0.20;;;;;;;11.49;94.22;101175.78;5038718;28;20446;-49
2024/02/19 02:47:20;;;;;;;0.30;0.20;;;;;;;11.55;94.14;101170.38;5042603;28;20484;-50
2024/02/19 02:49:47;;;;;;;0.30;0.20;;;;;;;11.58;94.03;101173.84;5037409;28;20529;-48
2024/02/19 02:52:13;;;;;;;0.30;0.20;;;;;;;11.32;93.44;101173.44;5080304;22;21035;-50
2024/02/19 02:54:40;;;;;;;0.30;0.20;;;;;;;11.52;93.75;101168.66;5073294;28;20446;-48
2024/02/19 02:57:06;;;;;;;0.30;0.20;;;;;;;11.50;93.03;101173.09;5073352;28;20468;-48
2024/02/19 02:59:33;;;;;;;0.30;0.20;;;;;;;11.28;93.77;101174.41;5073149;28;20450;-47
2024/02/19 03:01:59;;;;;;;0.30;0.20;;;;;;;11.28;93.94;101171.75;5073495;28;20476;-48
2024/02/19 03:04:26;;;;;;;0.30;0.20;;;;;;;11.16;94.19;101177.25;5064879;28;20452;-48
2024/02/19 03:06:52;;;;;;;0.30;0.20;;;;;;;11.25;94.11;101182.44;5073653;28;20417;-48
2024/02/19 03:09:19;;;;;;;0.30;0.20;;;;;;;11.52;92.80;101181.09;5072970;28;20537;-48
2024/02/19 03:11:45;;;;;;;0.30;0.20;;;;;;;11.51;93.66;101177.53;5048903;28;20522;-49
2024/02/19 03:14:13;;;;;;;0.30;0.20;;;;;;;11.37;92.85;101187.53;5069773;28;20456;-49
2024/02/19 03:16:40;;;;;;;0.30;0.20;;;;;;;11.24;93.51;101178.03;5072642;28;20874;-49
2024/02/19 03:19:09;;;;;;;0.30;0.20;;;;;;;11.25;94.19;101183.31;5072305;28;20496;-49
2024/02/19 03:21:36;;;;;;;0.30;0.20;;;;;;;11.38;94.05;101185.78;5072408;28;20960;-49
2024/02/19 03:24:03;;;;;;;0.30;0.20;;;;;;;11.47;94.06;101194.44;5072163;28;20454;-48
2024/02/19 03:26:29;;;;;;;0.30;0.20;;;;;;;11.31;93.76;101190.31;5072435;28;20824;-48
2024/02/19 03:29:12;;;;;;;0.30;0.20;;;;;;;11.33;94.24;101199.16;5048228;28;20441;-49
2024/02/19 03:31:42;;;;;;;0.30;0.20;;;;;;;11.66;93.64;101200.34;5072026;28;20462;-47
2024/02/19 03:34:08;;;;;;;0.30;0.20;;;;;;;11.47;94.00;101198.91;5058928;28;21007;-48
2024/02/19 03:36:35;;;;;;;0.30;0.20;;;;;;;11.48;93.38;101205.97;5063871;28;20453;-49
2024/02/19 03:39:03;;;;;;;0.30;0.20;;;;;;;11.32;94.03;101205.38;5072665;28;20520;-48
2024/02/19 03:41:30;;;;;;;0.30;0.20;;;;;;;11.34;93.39;101208.88;5066240;28;20821;-48
2024/02/19 03:43:57;;;;;;;0.30;0.20;;;;;;;11.33;94.02;101216.91;5050503;28;20446;-49
2024/02/19 03:46:23;;;;;;;0.30;0.20;;;;;;;11.41;94.01;101215.00;5070253;28;20428;-49
2024/02/19 03:48:49;;;;;;;0.30;0.20;;;;;;;11.40;93.66;101222.09;5042201;28;20924;-48
2024/02/19 03:51:16;;;;;;;0.30;0.20;;;;;;;11.49;93.05;101226.38;5068766;28;20574;-48
2024/02/19 03:53:43;;;;;;;0.30;0.20;;;;;;;11.34;93.35;101226.63;5072143;28;20446;-48
2024/02/19 03:56:09;;;;;;;0.30;0.20;;;;;;;11.35;93.37;101233.72;5072123;28;20515;-49
2024/02/19 03:58:35;;;;;;;0.30;0.20;;;;;;;11.13;93.80;101231.41;5072232;28;20492;-51
2024/02/19 04:01:02;;;;;;;0.30;0.20;;;;;;;11.12;93.95;101234.09;5072028;28;20998;-51
2024/02/19 04:03:33;;;;;;;0.30;0.20;;;;;;;11.37;93.55;101238.09;5068312;28;20420;-49
2024/02/19 04:06:00;;;;;;;0.30;0.20;;;;;;;11.16;93.84;101254.44;5067616;28;20454;-48
2024/02/19 04:08:26;;;;;;;0.30;0.20;;;;;;;11.17;93.54;101250.88;5071687;28;20988;-48
2024/02/19 04:10:53;;;;;;;0.30;0.20;;;;;;;11.05;94.05;101259.03;5071631;28;20473;-47
2024/02/19 04:13:19;;;;;;;0.30;0.20;;;;;;;11.22;94.15;101260.53;5071660;28;20515;-48
2024/02/19 04:15:46;;;;;;;0.30;0.20;;;;;;;11.25;93.63;101265.81;5071758;28;20450;-48
2024/02/19 04:18:12;;;;;;;0.30;0.20;;;;;;;11.20;94.49;101266.78;5071517;28;20487;-48
2024/02/19 04:20:39;;;;;;;0.30;0.20;;;;;;;11.23;94.02;101270.25;5071507;28;20532;-49
2024/02/19 04:23:05;;;;;;;0.30;0.20;;;;;;;11.21;93.95;101274.75;5071736;28;20450;-47
2024/02/19 04:25:32;;;;;;;0.30;0.20;;;;;;;11.41;93.50;101279.75;5071496;28;20553;-48
2024/02/19 04:27:58;;;;;;;0.30;0.20;;;;;;;11.44;93.54;101285.03;5047972;28;20476;-48
2024/02/19 04:30:24;;;;;;;0.30;0.20;;;;;;;11.33;93.58;101286.97;5068027;28;20822;-48
2024/02/19 04:32:51;;;;;;;0.30;0.20;;;;;;;11.37;94.11;101288.69;5071690;28;20543;-48
2024/02/19 04:35:18;;;;;;;0.30;0.20;;;;;;;11.22;94.43;101287.13;5046625;28;20450;-48
2024/02/19 04:37:45;;;;;;;0.30;0.20;;;;;;;11.09;94.08;101293.53;5071514;28;20453;-48
2024/02/19 04:40:12;;;;;;;0.30;0.20;;;;;;;10.94;92.43;101294.66;5071289;28;20452;-49
2024/02/19 04:42:39;;;;;;;0.30;0.20;;;;;;;11.01;89.30;101300.78;5069840;28;20466;-48
2024/02/19 04:45:06;;;;;;;0.30;0.20;;;;;;;11.10;88.25;101300.66;5071551;28;20462;-48
2024/02/19 04:47:32;;;;;;;0.30;0.20;;;;;;;11.10;88.04;101297.09;5050742;28;20951;-48
2024/02/19 04:49:59;;;;;;;0.30;0.20;;;;;;;11.18;86.67;101303.19;5055964;28;20840;-49
2024/02/19 04:52:26;;;;;;;0.30;0.20;;;;;;;11.21;86.48;101300.47;5071504;28;20484;-47
2024/02/19 04:54:52;;;;;;;0.30;0.20;;;;;;;11.15;84.96;101309.44;5071787;28;20472;-48
2024/02/19 04:57:20;;;;;;;0.30;0.20;;;;;;;11.11;84.24;101323.69;5071660;28;20446;-48
2024/02/19 04:59:46;;;;;;;0.30;0.20;;;;;;;11.00;83.41;101314.09;5071339;28;20498;-47
2024/02/19 05:02:12;;;;;;;0.30;0.20;;;;;;;10.98;81.41;101304.38;5071409;28;20512;-47
2024/02/19 05:04:39;;;;;;;0.30;0.20;;;;;;;10.91;80.80;101310.66;5054799;28;20478;-48
2024/02/19 05:07:06;;;;;;;0.30;0.20;;;;;;;11.00;79.92;101307.00;5064003;28;20446;-49
2024/02/19 05:09:33;;;;;;;0.30;0.20;;;;;;;10.86;78.33;101307.19;5070907;28;20533;-48
2024/02/19 05:12:00;;;;;;;0.30;0.20;;;;;;;10.96;77.75;101307.91;5071194;28;20469;-47
2024/02/19 05:14:26;;;;;;;0.30;0.20;;;;;;;10.84;77.67;101306.34;5071134;28;20509;-47
2024/02/19 05:16:54;;;;;;;0.30;0.20;;;;;;;10.91;77.90;101302.66;5071126;28;21034;-48
2024/02/19 05:19:21;;;;;;;0.30;0.20;;;;;;;10.87;78.78;101300.97;5071022;28;20517;-47
2024/02/19 05:21:48;;;;;;;0.30;0.20;;;;;;;10.77;79.15;101294.00;5071142;28;20477;-47
2024/02/19 05:24:17;;;;;;;0.30;0.20;;;;;;;10.79;80.34;101294.84;5070820;28;20450;-48
2024/02/19 05:26:44;;;;;;;0.30;0.20;;;;;;;10.79;81.28;101291.31;5068089;28;20517;-48
2024/02/19 05:29:10;;;;;;;0.30;0.20;;;;;;;10.75;81.66;101293.16;5046957;28;20931;-48
2024/02/19 05:31:38;;;;;;;0.30;0.20;;;;;;;10.80;81.12;101291.28;5070973;28;20813;-47
2024/02/19 05:34:06;;;;;;;0.30;0.20;;;;;;;10.78;81.30;101287.78;5058524;28;20538;-48
2024/02/19 05:36:33;;;;;;;0.30;0.20;;;;;;;10.74;81.46;101285.19;5061651;28;20449;-48
2024/02/19 05:39:00;;;;;;;0.30;0.20;;;;;;;10.70;81.45;101283.47;5071262;28;20573;-48
2024/02/19 05:41:27;;;;;;;0.30;0.20;;;;;;;10.66;81.77;101282.63;5070799;28;20545;-48
2024/02/19 05:43:53;;;;;;;0.30;0.20;;;;;;;10.72;81.56;101287.88;5071032;28;21128;-47
2024/02/19 05:46:20;;;;;;;0.30;0.20;;;;;;;10.67;81.30;101290.56;5070314;28;20452;-49
2024/02/19 05:48:46;;;;;;;0.30;0.20;;;;;;;10.59;81.53;101286.28;5043849;28;20450;-47
2024/02/19 05:51:13;;;;;;;0.30;0.20;;;;;;;10.65;81.85;101284.41;5069846;28;21095;-47
2024/02/19 05:53:40;;;;;;;0.30;0.20;;;;;;;10.61;82.03;101287.13;5074373;28;20531;-47
2024/02/19 05:56:10;;;;;;;0.30;0.20;;;;;;;10.55;81.97;101293.41;5074054;28;20449;-48
2024/02/19 05:58:40;;;;;;;0.30;0.20;;;;;;;10.75;81.53;101285.16;5074012;28;20489;-48
2024/02/19 06:01:07;;;;;;;0.30;0.20;;;;;;;10.58;81.94;101289.84;5074045;28;20465;-47
2024/02/19 06:03:35;;;;;;;0.30;0.20;;;;;;;10.51;82.50;101288.13;5069828;28;20549;-48
2024/02/19 06:06:02;;;;;;;0.30;0.20;;;;;;;10.50;82.65;101297.00;5060492;28;20505;-48
2024/02/19 06:08:30;;;;;;;0.30;0.20;;;;;;;10.50;82.54;101304.97;5056611;28;20962;-48
2024/02/19 06:10:56;;;;;;;0.30;0.20;;;;;;;10.37;83.11;101307.78;5073843;28;20497;-48
2024/02/19 06:13:24;;;;;;;0.30;0.20;;;;;;;10.57;82.59;101315.53;5073816;28;20472;-49
2024/02/19 06:15:52;;;;;;;0.30;0.20;;;;;;;10.50;82.52;101315.63;5073816;28;20449;-48
2024/02/19 06:18:19;;;;;;;0.30;0.20;;;;;;;10.64;82.60;101316.31;5073507;28;20550;-47
2024/02/19 06:20:47;;;;;;;0.30;0.20;;;;;;;10.46;82.74;101320.09;5072421;28;20916;-46
2024/02/19 06:23:14;;;;;;;0.30;0.20;;;;;;;10.56;82.55;101331.50;5073988;28;20453;-47
2024/02/19 06:25:44;;;;;;;0.30;0.20;;;;;;;10.70;82.21;101336.66;5073811;28;20450;-48
2024/02/19 06:28:11;;;;;;;0.30;0.20;;;;;;;10.57;81.68;101341.25;5046734;28;20502;-48
2024/02/19 06:30:38;;;;;;;0.30;0.20;;;;;;;10.53;83.42;101345.69;5073461;28;20460;-47
2024/02/19 06:33:05;;;;;;;0.30;0.20;;;;;;;10.41;83.66;101355.56;5073547;28;20428;-49
2024/02/19 06:35:31;;;;;;;0.30;0.20;;;;;;;10.54;84.24;101357.22;5058566;28;20507;-47
2024/02/19 06:37:58;;;;;;;0.30;0.20;;;;;;;10.73;83.36;101352.56;5046576;28;20447;-48
2024/02/19 06:40:26;;;;;;;0.30;0.20;;;;;;;10.81;82.38;101362.19;5073310;28;20489;-47
2024/02/19 06:42:53;;;;;;;0.30;0.20;;;;;;;10.75;83.27;101369.38;5072922;28;20454;-47
2024/02/19 06:45:21;;;;;;;0.30;0.20;;;;;;;10.81;83.37;101375.50;5073271;28;20445;-47
2024/02/19 06:47:47;;;;;;;0.30;0.20;;;;;;;10.60;83.73;101378.44;5049037;28;20526;-47
2024/02/19 06:50:14;;;;;;;0.30;0.20;;;;;;;10.63;83.99;101391.69;5053524;28;20447;-47
2024/02/19 06:52:44;;;;;;;0.30;0.20;;;;;;;10.55;84.87;101397.09;5053791;28;20524;-47
2024/02/19 06:55:15;;;;;;;0.30;0.20;;;;;;;10.79;84.16;101406.56;5073050;28;20446;-47
2024/02/19 06:57:42;;;;;;;0.30;0.20;;;;;;;10.74;84.63;101404.84;5073150;28;20826;-50
2024/02/19 07:00:10;;;;;;;0.30;0.20;;;;;;;10.66;85.84;101412.91;5055715;28;20487;-50
2024/02/19 07:02:37;;;;;;;0.30;0.20;;;;;;;10.80;84.76;101413.63;5065622;28;20478;-50
2024/02/19 07:05:05;;;;;;;0.30;0.20;;;;;;;10.76;85.61;101414.56;5064095;28;20454;-50
2024/02/19 07:07:33;;;;;;;0.30;0.20;;;;;;;10.70;85.22;101419.97;5072770;28;20938;-50
2024/02/19 07:10:00;;;;;;;0.30;0.20;;;;;;;10.76;85.54;101425.22;5072850;28;20957;-50
2024/02/19 07:12:28;;;;;;;0.30;0.20;;;;;;;10.77;85.67;101426.97;5071189;28;20893;-49
2024/02/19 07:14:57;;;;;;;0.30;0.20;;;;;;;10.95;84.95;101431.19;5072609;28;20482;-49
2024/02/19 07:17:25;;;;;;;0.30;0.20;;;;;;;10.87;84.98;101428.63;5072544;28;20442;-49
2024/02/19 07:19:51;;;;;;;0.30;0.20;;;;;;;10.56;85.79;101425.44;5072501;28;21013;-49
2024/02/19 07:22:18;;;;;;;0.30;0.20;;;;;;;10.66;85.62;101426.19;5072297;28;20470;-49
2024/02/19 07:24:46;;;;;;;0.30;0.20;;;;;;;10.70;85.95;101441.25;5072477;28;20455;-49
2024/02/19 07:27:13;;;;;;;0.30;0.20;;;;;;;10.81;85.50;101446.44;5061346;28;20479;-49
2024/02/19 07:29:39;;;;;;;0.30;0.20;;;;;;;10.66;86.01;101445.69;5056668;28;20445;-49
2024/02/19 07:32:06;;;;;;;0.30;0.20;;;;;;;10.68;86.05;101448.34;5072283;28;20501;-49
2024/02/19 07:34:32;;;;;;;0.30;0.20;;;;;;;10.73;85.50;101457.16;5051946;28;20456;-49
2024/02/19 07:36:59;;;;;;;0.30;0.20;;;;;;;10.79;86.03;101454.44;5069967;28;20446;-50
2024/02/19 07:39:26;;;;;;;0.30;0.20;;;;;;;10.83;86.36;101457.97;5072057;28;20485;-49
2024/02/19 07:41:52;;;;;;;0.30;0.20;;;;;;;10.80;86.58;101461.50;5071786;28;20470;-49
2024/02/19 07:44:19;;;;;;;0.30;0.20;;;;;;;10.80;86.67;101460.63;5072061;28;20450;-49
2024/02/19 07:46:45;;;;;;;0.30;0.20;;;;;;;10.81;86.31;101455.28;5064242;28;20925;-49
2024/02/19 07:49:11;;;;;;;0.30;0.20;;;;;;;10.85;86.67;101461.47;5044510;28;20891;-49
2024/02/19 07:51:38;;;;;;;0.30;0.20;;;;;;;11.03;86.14;101463.03;5070623;28;20478;-49
2024/02/19 07:54:04;;;;;;;0.30;0.20;;;;;;;11.04;85.53;101465.69;5071850;28;20449;-49
2024/02/19 07:56:31;;;;;;;0.30;0.20;;;;;;;11.21;85.22;101465.47;5060006;28;20944;-49
2024/02/19 07:58:58;;;;;;;0.30;0.20;;;;;;;11.24;84.73;101466.34;5056904;28;21025;-50
2024/02/19 08:01:24;;;;;;;0.30;0.20;;;;;;;11.34;84.55;101464.44;5071672;28;20554;-50
2024/02/19 08:03:51;;;;;;;0.30;0.20;;;;;;;11.36;84.67;101459.97;5062787;28;20530;-50
2024/02/19 08:06:17;;;;;;;0.30;0.20;;;;;;;11.45;84.30;101462.50;5070230;28;20450;-50
2024/02/19 08:08:44;;;;;;;0.30;0.20;;;;;;;11.61;83.67;101462.28;5071309;28;20452;-49
2024/02/19 08:11:10;;;;;;;0.30;0.20;;;;;;;11.89;82.72;101469.00;5059374;28;20472;-50
2024/02/19 08:13:37;;;;;;;0.30;0.20;;;;;;;11.71;82.75;101474.59;5056725;28;20538;-50
2024/02/19 08:16:04;;;;;;;0.30;0.20;;;;;;;11.68;82.82;101479.97;5071647;28;20428;-50
2024/02/19 08:18:31;;;;;;;0.30;0.20;;;;;;;11.84;82.64;101477.09;5071602;28;20533;-50
2024/02/19 08:20:57;;;;;;;0.30;0.20;;;;;;;11.87;82.42;101473.50;5071354;28;20462;-50
2024/02/19 08:23:24;;;;;;;0.30;0.20;;;;;;;11.92;82.40;101474.28;5071503;28;20662;-50
2024/02/19 08:25:50;;;;;;;0.30;0.20;;;;;;;11.87;82.19;101481.47;5059005;28;20448;-49
2024/02/19 08:28:17;;;;;;;0.30;0.20;;;;;;;12.08;81.93;101485.63;5046249;28;20443;-49
2024/02/19 08:30:44;;;;;;;0.30;0.20;;;;;;;11.97;81.64;101483.13;5071268;28;20939;-49
2024/02/19 08:33:10;;;;;;;0.30;0.20;;;;;;;11.89;81.83;101473.47;5069769;28;20450;-49
2024/02/19 08:35:37;;;;;;;0.30;0.20;;;;;;;11.95;81.86;101479.59;5058182;28;20431;-49
2024/02/19 08:38:05;;;;;;;0.30;0.20;;;;;;;11.78;81.85;101481.56;5071108;28;20519;-49
2024/02/19 08:40:31;;;;;;;0.30;0.20;;;;;;;11.88;82.14;101485.91;5071151;28;20905;-49
2024/02/19 08:42:58;;;;;;;0.30;0.20;;;;;;;12.14;82.24;101486.41;5070953;28;20946;-48
2024/02/19 08:45:24;;;;;;;0.30;0.20;;;;;;;11.89;81.44;101486.78;5071530;28;20475;-49
2024/02/19 08:47:58;;;;;;;0.30;0.20;;;;;;;11.99;81.65;101475.09;5044781;28;20827;-49
2024/02/19 08:50:25;;;;;;;0.30;0.20;;;;;;;11.88;82.49;101482.38;5060224;28;20963;-49
2024/02/19 08:52:51;;;;;;;0.30;0.20;;;;;;;11.77;82.34;101490.47;5071458;28;20457;-49
2024/02/19 08:55:17;;;;;;;0.30;0.20;;;;;;;12.08;81.22;101483.84;5071191;28;21044;-49
2024/02/19 08:57:44;;;;;;;0.30;0.20;;;;;;;12.05;81.55;101486.53;5070998;28;20450;-49
2024/02/19 09:00:11;;;;;;;0.30;0.20;;;;;;;12.08;81.00;101489.16;5053122;28;20582;-50
2024/02/19 09:02:40;;;;;;;0.30;0.20;;;;;;;12.10;81.44;101483.81;5062866;28;21019;-50
2024/02/19 09:05:07;;;;;;;0.30;0.20;;;;;;;12.05;81.20;101486.53;5060947;28;20511;-50
2024/02/19 09:07:33;;;;;;;0.30;0.20;;;;;;;12.03;81.02;101496.34;5044296;28;20461;-50
2024/02/19 09:10:00;;;;;;;0.30;0.20;;;;;;;11.95;81.87;101492.03;5071402;28;20442;-50
2024/02/19 09:12:26;;;;;;;0.30;0.20;;;;;;;11.94;81.85;101482.28;5070747;28;20469;-50
2024/02/19 09:14:55;;;;;;;0.30;0.20;;;;;;;12.06;81.11;101483.00;5071203;28;20541;-50
2024/02/19 09:17:22;;;;;;;0.30;0.20;;;;;;;12.16;81.78;101481.91;5070884;28;20445;-50
2024/02/19 09:19:49;;;;;;;0.30;0.20;;;;;;;12.25;81.02;101469.34;5070859;28;20516;-50
2024/02/19 09:22:15;;;;;;;0.30;0.20;;;;;;;12.26;81.20;101469.31;5073637;28;20473;-50
2024/02/19 09:24:46;;;;;;;0.30;0.20;;;;;;;12.51;80.97;101474.25;5074888;28;20450;-50
2024/02/19 09:27:14;;;;;;;0.30;0.20;;;;;;;12.67;79.49;101481.06;5063855;28;20451;-50
2024/02/19 09:29:41;;;;;;;0.30;0.20;;;;;;;12.62;79.11;101478.50;5059497;28;20537;-50
2024/02/19 09:32:08;;;;;;;0.30;0.20;;;;;;;12.64;78.92;101474.00;5074364;28;20516;-50
2024/02/19 09:34:35;;;;;;;0.30;0.20;;;;;;;12.71;78.80;101475.63;5053571;28;20890;-50
2024/02/19 09:37:02;;;;;;;0.30;0.20;;;;;;;12.89;77.86;101477.09;5061348;28;20419;-50
2024/02/19 09:39:29;;;;;;;0.30;0.20;;;;;;;12.90;77.82;101472.66;5034670;28;20884;-50
2024/02/19 09:41:56;;;;;;;0.30;0.20;;;;;;;13.15;78.55;101478.34;5046699;28;20440;-50
2024/02/19 09:44:22;;;;;;;0.30;0.20;;;;;;;12.89;78.03;101477.09;5074520;28;20451;-50
2024/02/19 09:46:54;;;;;;;0.30;0.20;;;;;;;12.93;77.54;101476.13;5065838;28;20451;-51
2024/02/19 09:49:26;;;;;;;0.30;0.20;;;;;;;12.88;78.29;101471.78;5048161;28;20424;-51
2024/02/19 09:51:56;;;;;;;0.30;0.20;;;;;;;13.18;77.89;101463.22;5074404;28;20477;-51
2024/02/19 09:54:25;;;;;;;0.30;0.20;;;;;;;13.05;78.25;101456.34;5074373;28;20446;-50
2024/02/19 09:56:54;;;;;;;0.30;0.20;;;;;;;13.58;77.09;101460.59;5057634;28;20483;-50
2024/02/19 09:59:21;;;;;;;0.30;0.20;;;;;;;13.55;77.68;101449.06;5065284;28;21069;-51
2024/02/19 10:01:48;;;;;;;0.30;0.20;;;;;;;13.39;76.69;101451.19;5074321;28;20513;-50
2024/02/19 10:04:15;;;;;;;0.30;0.20;;;;;;;13.60;76.37;101452.53;5061598;28;20466;-50
2024/02/19 10:06:42;;;;;;;0.30;0.20;;;;;;;13.74;75.82;101452.22;5063851;28;20507;-51
2024/02/19 10:09:11;;;;;;;0.30;0.20;;;;;;;13.74;75.78;101458.44;5074595;28;20511;-50
2024/02/19 10:11:38;;;;;;;0.30;0.20;;;;;;;13.54;74.93;101458.88;5073911;28;20527;-50
2024/02/19 10:14:05;;;;;;;0.30;0.20;;;;;;;13.62;75.36;101456.91;5074618;28;20793;-51
2024/02/19 10:16:32;;;;;;;0.30;0.20;;;;;;;13.67;75.86;101454.13;5074161;28;20446;-50
2024/02/19 10:19:06;;;;;;;0.30;0.20;;;;;;;13.63;76.17;101450.66;5073961;28;20519;-50
2024/02/19 10:21:34;;;;;;;0.30;0.20;;;;;;;13.90;75.33;101450.94;5074007;28;20448;-50
2024/02/19 10:24:00;;;;;;;0.30;0.20;;;;;;;13.84;75.10;101446.63;5073780;28;20432;-50
2024/02/19 10:26:27;;;;;;;0.30;0.20;;;;;;;14.01;74.20;101450.69;5073950;28;20424;-50
2024/02/19 10:28:55;;;;;;;0.30;0.20;;;;;;;14.14;74.03;101447.69;5047013;28;20477;-51
2024/02/19 10:31:22;;;;;;;0.30;0.20;;;;;;;14.23;73.94;101457.25;5073852;28;20558;-50
2024/02/19 10:33:48;;;;;;;0.30;0.20;;;;;;;13.96;73.96;101441.88;5064398;28;20456;-50
2024/02/19 10:36:19;;;;;;;0.30;0.20;;;;;;;14.11;74.18;101441.50;5047001;28;20429;-50
2024/02/19 10:38:46;;;;;;;0.30;0.20;;;;;;;13.80;75.69;101450.25;5073426;28;20836;-51
2024/02/19 10:41:13;;;;;;;0.30;0.20;;;;;;;13.91;75.00;101436.66;5073521;28;20471;-50
2024/02/19 10:43:40;;;;;;;0.30;0.20;;;;;;;14.15;73.75;101436.06;5046981;28;20425;-51
2024/02/19 10:46:07;;;;;;;0.30;0.20;;;;;;;13.77;74.42;101433.44;5073274;28;20803;-51
2024/02/19 10:48:34;;;;;;;0.30;0.20;;;;;;;13.84;74.78;101433.25;5043122;28;20454;-51
2024/02/19 10:51:04;;;;;;;0.30;0.20;;;;;;;14.07;73.91;101426.47;5067049;28;20481;-50
2024/02/19 10:53:31;;;;;;;0.30;0.20;;;;;;;14.07;74.42;101419.31;5071940;28;20423;-51
2024/02/19 10:56:43;;;;;;;0.30;0.20;;;;;;;14.25;72.91;101409.94;5073157;28;20544;-50
2024/02/19 10:59:11;;;;;;;0.30;0.20;;;;;;;14.63;72.59;101408.09;5035186;28;20424;-50
2024/02/19 11:01:44;;;;;;;0.30;0.20;;;;;;;14.49;72.68;101395.97;5072792;28;20465;-50
2024/02/19 11:04:20;;;;;;;0.30;0.20;;;;;;;14.32;73.18;101398.19;5061495;28;20540;-51
2024/02/19 11:06:55;;;;;;;0.30;0.20;;;;;;;14.20;73.17;101401.19;5054242;28;20704;-51
2024/02/19 11:09:29;;;;;;;0.30;0.20;;;;;;;14.05;72.25;101399.78;5067583;28;20458;-50
2024/02/19 11:11:58;;;;;;;0.30;0.20;;;;;;;14.11;72.82;101390.69;5072991;28;20828;-50
2024/02/19 11:14:31;;;;;;;0.30;0.20;;;;;;;14.32;71.86;101392.84;5072437;28;20457;-50
2024/02/19 11:16:59;;;;;;;0.30;0.20;;;;;;;14.52;71.60;101389.66;5072915;28;20450;-51
2024/02/19 11:19:27;;;;;;;0.30;0.20;;;;;;;14.28;70.95;101393.84;5046381;28;20450;-50
2024/02/19 11:22:09;;;;;;;0.30;0.20;;;;;;;14.28;71.43;101383.16;5072870;28;20477;-48
2024/02/19 11:24:36;;;;;;;0.30;0.20;;;;;;;14.17;71.71;101390.56;5072572;28;20449;-49